Estación Meteorológica Peña el Pijo (Robertgarden) [ 11/16/19 01:55:37 CET ]

Fecha Hora Presion(HPa) Temp (°C) Humedad % Rocio (°C) Viento ( m/s) Direccion Lluvia 1Hora(mm) Lluvia 24H(mm) LLuvia Total(mm)
2019-Jul-28 01:01:50 1006.500 18.1 60 10.2         344.18
2019-Jul-28 02:01:19 1006.300 17.0 65 10.3         344.18
2019-Jul-28 03:01:40 1006.000 15.4 68 9.5         344.18
2019-Jul-28 04:01:38 1005.500 14.4 72 9.4         344.18
2019-Jul-28 05:06:10 1005.300 13.6 75 9.2         344.18
2019-Jul-28 06:01:43 1005.800 12.9 78 9.1         344.18
2019-Jul-28 07:02:02 1006.100 13.0 80 9.6         344.18
2019-Jul-28 08:01:55 1006.300 14.2 81 11.0         344.18
2019-Jul-28 09:01:43 1006.300 19.5 70 13.9         344.18
2019-Jul-28 10:01:48 1006.300 22.6 54 12.8         344.18
2019-Jul-28 11:01:48 1006.100 25.8 44 12.6         344.18
2019-Jul-28 12:01:57 1005.900 27.5 38 11.9         344.18
2019-Jul-28 13:01:53 1005.600 27.8 36 11.3         344.18
2019-Jul-28 14:01:51 1005.400 29.9 33 11.8         344.18
2019-Jul-28 15:01:46 1004.900 32.3 28 11.4         344.18
2019-Jul-28 16:01:53 1004.300 32.9 26 10.7         344.18
2019-Jul-28 17:01:57 1003.800 33.9 26 11.5         344.18
2019-Jul-28 18:01:49 1003.900 32.8 28 11.8         344.18
2019-Jul-28 19:01:53 1003.700 30.3 30 10.8         344.18
2019-Jul-28 20:01:35 1004.300 26.7 38 11.2 2.3 WSW     344.18
2019-Jul-28 21:01:46 1005.000 24.6 42 10.8         344.18
2019-Jul-28 22:01:32 1005.600 22.4 46 10.6         344.18
2019-Jul-28 23:01:44 1006.500 19.9 52 9.8         344.18

Temperatura Máxima:33°    Temperatura Mínima:12°
Presión Máxima:1006.500 Hpa    Presión Mínima:1003.700 Hpa


Volver